createdAt,value
2019-01-19T00:01:39.131Z,6.43
2019-01-19T00:04:40.203Z,9.53
2019-01-19T00:07:38.741Z,5.57
2019-01-19T00:10:51.795Z,6.20
2019-01-19T00:13:49.150Z,6.07
2019-01-19T00:17:21.608Z,8.17
2019-01-19T00:20:46.719Z,6.53
2019-01-19T00:23:42.211Z,10.50
2019-01-19T00:26:44.532Z,8.63
2019-01-19T00:29:43.613Z,5.50
2019-01-19T00:32:51.654Z,6.07
2019-01-19T00:35:54.661Z,8.43
2019-01-19T00:39:26.858Z,7.23
2019-01-19T00:42:12.594Z,5.50
2019-01-19T00:45:38.787Z,10.03
2019-01-19T00:48:50.060Z,11.53
2019-01-19T00:51:42.365Z,7.07
2019-01-19T00:54:28.665Z,8.93
2019-01-19T00:57:16.308Z,8.23
2019-01-19T00:59:53.713Z,7.47
2019-01-19T01:02:58.118Z,6.03
2019-01-19T01:06:22.816Z,10.63
2019-01-19T01:09:29.048Z,8.07
2019-01-19T01:12:09.024Z,8.53
2019-01-19T01:15:29.165Z,6.07
2019-01-19T01:18:14.951Z,7.60
2019-01-19T01:21:04.361Z,5.73
2019-01-19T01:24:30.509Z,5.17
2019-01-19T01:27:23.115Z,10.50
2019-01-19T01:30:30.985Z,6.23
2019-01-19T01:33:31.557Z,8.40
2019-01-19T01:36:31.088Z,6.10
2019-01-19T01:39:39.999Z,6.03
2019-01-19T01:42:52.883Z,8.93
2019-01-19T01:46:10.772Z,10.97
2019-01-19T01:48:55.118Z,7.13
2019-01-19T01:52:04.206Z,6.33
2019-01-19T01:55:09.950Z,6.40
2019-01-19T01:58:31.577Z,10.10
2019-01-19T02:01:41.596Z,5.07
2019-01-19T02:04:35.586Z,8.03
2019-01-19T02:07:29.352Z,7.87
2019-01-19T02:10:28.028Z,10.87
2019-01-19T02:13:22.504Z,9.17
2019-01-19T02:16:50.350Z,7.13
2019-01-19T02:19:44.764Z,7.43
2019-01-19T02:22:29.353Z,8.63
2019-01-19T02:25:23.559Z,5.03
2019-01-19T02:28:24.263Z,6.77
2019-01-19T02:31:42.717Z,9.27
2019-01-19T02:34:35.753Z,4.73
2019-01-19T02:37:19.805Z,7.17
2019-01-19T02:40:08.069Z,10.53
2019-01-19T02:42:56.246Z,10.93
2019-01-19T02:46:16.456Z,7.73
2019-01-19T02:49:26.460Z,6.90
2019-01-19T02:52:39.285Z,6.47
2019-01-19T02:55:46.117Z,7.60
2019-01-19T02:58:27.754Z,7.73
2019-01-19T03:01:50.869Z,7.83
2019-01-19T03:05:03.199Z,10.90
2019-01-19T03:07:57.095Z,13.13
2019-01-19T03:11:09.879Z,9.83
2019-01-19T03:14:23.716Z,9.80
2019-01-19T03:17:35.654Z,7.03
2019-01-19T03:20:42.578Z,10.63
2019-01-19T03:23:58.057Z,8.67
2019-01-19T03:27:11.231Z,11.97
2019-01-19T03:30:04.450Z,10.63
2019-01-19T03:33:22.496Z,5.50
2019-01-19T03:36:20.757Z,9.60
2019-01-19T03:39:49.757Z,8.67
2019-01-19T03:42:49.264Z,8.67
2019-01-19T03:46:01.922Z,7.90
2019-01-19T03:49:13.637Z,9.93
2019-01-19T03:52:36.860Z,8.83
2019-01-19T03:55:44.496Z,9.40
2019-01-19T03:58:41.081Z,9.33
2019-01-19T04:01:45.927Z,9.90
2019-01-19T04:04:40.263Z,7.17
2019-01-19T04:07:42.974Z,9.30
2019-01-19T04:10:40.180Z,10.50
2019-01-19T04:13:34.917Z,7.27
2019-01-19T04:16:54.035Z,6.03
2019-01-19T04:19:37.731Z,10.27
2019-01-19T04:22:31.922Z,8.17
2019-01-19T04:25:47.033Z,8.07
2019-01-19T04:28:21.046Z,7.80
2019-01-19T04:30:53.277Z,7.70
2019-01-19T04:33:25.512Z,6.63
2019-01-19T04:35:58.009Z,9.20
2019-01-19T04:38:30.756Z,11.33
2019-01-19T04:41:03.068Z,12.83
2019-01-19T04:43:35.358Z,10.43
2019-01-19T04:46:07.505Z,11.60
2019-01-19T04:48:40.045Z,8.53
2019-01-19T04:51:12.418Z,9.50
2019-01-19T04:53:44.784Z,9.60
2019-01-19T04:56:16.855Z,11.57
2019-01-19T04:58:49.266Z,9.97
2019-01-19T05:01:21.442Z,9.73
2019-01-19T05:03:53.996Z,8.07
2019-01-19T05:06:30.552Z,10.93
2019-01-19T05:08:59.981Z,12.73
2019-01-19T05:11:32.101Z,11.07
2019-01-19T05:14:04.735Z,11.73
2019-01-19T05:16:36.985Z,8.67
2019-01-19T05:19:09.210Z,8.93
2019-01-19T05:21:41.407Z,11.33
2019-01-19T05:24:13.552Z,8.47
2019-01-19T05:26:45.876Z,9.80
2019-01-19T05:29:17.978Z,9.67
2019-01-19T05:31:49.979Z,8.53
2019-01-19T05:34:22.033Z,12.67
2019-01-19T05:36:54.283Z,11.50
2019-01-19T05:39:26.579Z,11.47
2019-01-19T05:41:58.587Z,10.33
2019-01-19T05:44:31.162Z,10.33
2019-01-19T05:47:03.638Z,9.50
2019-01-19T05:49:35.687Z,12.73
2019-01-19T05:52:07.923Z,16.63
2019-01-19T05:54:40.475Z,11.23
2019-01-19T05:57:12.728Z,9.90
2019-01-19T05:59:44.870Z,13.23
2019-01-19T06:02:16.984Z,16.20
2019-01-19T06:04:49.370Z,10.13
2019-01-19T06:07:21.649Z,11.43
2019-01-19T06:09:53.918Z,12.47
2019-01-19T06:12:26.216Z,11.37
2019-01-19T06:14:58.341Z,12.03
2019-01-19T06:17:30.584Z,10.60
2019-01-19T06:20:03.806Z,12.97
2019-01-19T06:22:36.086Z,11.87
2019-01-19T06:25:08.782Z,10.10
2019-01-19T06:27:41.154Z,14.40
2019-01-19T06:30:18.707Z,9.60
2019-01-19T06:32:51.146Z,11.83
2019-01-19T06:35:23.709Z,9.40
2019-01-19T06:37:56.263Z,13.30
2019-01-19T06:40:28.369Z,13.53
2019-01-19T06:43:00.671Z,12.10
2019-01-19T06:45:32.780Z,11.73
2019-01-19T06:48:05.325Z,14.83
2019-01-19T06:50:37.424Z,16.80
2019-01-19T06:53:09.702Z,18.63
2019-01-19T06:55:41.884Z,12.20
2019-01-19T06:58:14.695Z,12.47
2019-01-19T07:00:47.276Z,16.33
2019-01-19T07:03:19.569Z,11.27
2019-01-19T07:05:51.918Z,12.03
2019-01-19T07:08:23.955Z,10.37
2019-01-19T07:10:56.176Z,14.43
2019-01-19T07:13:28.291Z,11.80
2019-01-19T07:16:00.486Z,14.03
2019-01-19T07:18:32.611Z,15.37
2019-01-19T07:21:05.367Z,14.90
2019-01-19T07:23:37.453Z,11.53
2019-01-19T07:26:09.844Z,10.47
2019-01-19T07:28:41.834Z,15.30
2019-01-19T07:31:13.988Z,12.80
2019-01-19T07:33:46.104Z,13.93
2019-01-19T07:36:18.391Z,19.07
2019-01-19T07:38:50.595Z,9.90
2019-01-19T07:41:22.845Z,12.70
2019-01-19T07:43:54.980Z,16.07
2019-01-19T07:46:27.684Z,16.10
2019-01-19T07:48:59.816Z,16.90
2019-01-19T07:51:31.925Z,14.50
2019-01-19T07:54:04.510Z,17.52
2019-01-19T07:56:36.606Z,16.80
2019-01-19T07:59:08.913Z,15.67
2019-01-19T08:01:41.105Z,18.20
2019-01-19T08:04:13.310Z,17.43
2019-01-19T08:06:45.566Z,17.67
2019-01-19T08:09:17.998Z,14.90
2019-01-19T08:11:50.326Z,17.93
2019-01-19T08:14:22.709Z,17.23
2019-01-19T08:16:54.985Z,17.77
2019-01-19T08:19:27.101Z,15.90
2019-01-19T08:21:59.623Z,15.53
2019-01-19T08:24:31.899Z,15.20
2019-01-19T08:27:04.041Z,21.30
2019-01-19T08:29:36.257Z,18.73
2019-01-19T08:32:08.484Z,20.70
2019-01-19T08:34:40.674Z,18.67
2019-01-19T08:37:13.019Z,21.43
2019-01-19T08:39:45.446Z,19.63
2019-01-19T08:42:17.586Z,19.50
2019-01-19T08:44:49.900Z,24.10
2019-01-19T08:47:22.014Z,20.97
2019-01-19T08:49:54.257Z,16.97
2019-01-19T08:52:26.661Z,16.83
2019-01-19T08:54:59.432Z,20.47
2019-01-19T08:57:31.672Z,21.17
2019-01-19T09:00:07.072Z,21.33
2019-01-19T09:02:39.651Z,18.17
2019-01-19T09:05:12.058Z,19.93
2019-01-19T09:07:44.401Z,28.60
2019-01-19T09:10:19.467Z,27.53
2019-01-19T09:12:51.995Z,21.43
2019-01-19T09:15:24.184Z,20.73
2019-01-19T09:17:56.342Z,23.50
2019-01-19T09:20:28.665Z,22.03
2019-01-19T09:23:10.393Z,21.63
2019-01-19T09:25:42.958Z,29.90
2019-01-19T09:28:15.192Z,22.40
2019-01-19T09:30:47.385Z,29.20
2019-01-19T09:33:19.775Z,21.63
2019-01-19T09:35:52.431Z,23.60
2019-01-19T09:38:25.042Z,24.93
2019-01-19T09:40:57.301Z,24.00
2019-01-19T09:43:29.718Z,24.17
2019-01-19T09:46:02.254Z,23.10
2019-01-19T09:48:34.444Z,25.33
2019-01-19T09:51:06.849Z,23.20
2019-01-19T09:53:39.293Z,20.83
2019-01-19T09:56:11.851Z,21.63
2019-01-19T09:58:44.071Z,23.23
2019-01-19T10:01:16.680Z,21.20
2019-01-19T10:03:48.922Z,23.10
2019-01-19T10:06:21.541Z,22.83
2019-01-19T10:08:53.869Z,23.70
2019-01-19T10:11:28.020Z,20.60
2019-01-19T10:14:00.271Z,24.10
2019-01-19T10:17:03.137Z,23.77
2019-01-19T10:19:38.776Z,20.33
2019-01-19T10:22:12.871Z,23.23
2019-01-19T10:24:45.022Z,23.27
2019-01-19T10:27:17.789Z,25.17
2019-01-19T10:29:49.944Z,25.87
2019-01-19T10:32:22.041Z,23.00
2019-01-19T10:34:54.550Z,22.80
2019-01-19T10:37:26.688Z,26.10
2019-01-19T10:39:58.923Z,25.50
2019-01-19T10:42:31.447Z,30.60
2019-01-19T10:45:04.497Z,22.10
2019-01-19T10:47:36.981Z,23.90
2019-01-19T10:50:11.378Z,23.70
2019-01-19T10:52:43.949Z,23.13
2019-01-19T10:55:17.625Z,21.33
2019-01-19T10:57:50.029Z,22.40
2019-01-19T11:00:24.706Z,27.20
2019-01-19T11:02:57.869Z,26.17
2019-01-19T11:05:30.329Z,25.70
2019-01-19T11:08:04.490Z,28.60
2019-01-19T11:10:36.719Z,20.10
2019-01-19T11:13:08.963Z,22.47
2019-01-19T11:15:41.280Z,25.87
2019-01-19T11:18:13.599Z,27.73
2019-01-19T11:20:45.705Z,22.17
2019-01-19T11:23:18.184Z,24.97
2019-01-19T11:25:50.603Z,23.63
2019-01-19T11:28:22.828Z,20.07
2019-01-19T11:30:55.075Z,22.00
2019-01-19T11:33:27.664Z,19.43
2019-01-19T11:36:00.168Z,21.27
2019-01-19T11:38:33.364Z,22.63
2019-01-19T11:41:05.907Z,21.90
2019-01-19T11:43:38.135Z,21.57
2019-01-19T11:46:10.587Z,24.57
2019-01-19T11:48:43.181Z,19.63
2019-01-19T11:51:15.566Z,28.80
2019-01-19T11:53:47.834Z,23.33
2019-01-19T11:56:20.223Z,27.07
2019-01-19T11:58:52.961Z,25.97
2019-01-19T12:01:25.271Z,17.83
2019-01-19T12:03:57.428Z,24.00
2019-01-19T12:06:29.584Z,22.03
2019-01-19T12:09:02.963Z,23.23
2019-01-19T12:11:35.482Z,25.30
2019-01-19T12:14:08.582Z,21.87
2019-01-19T12:16:41.487Z,21.30
2019-01-19T12:19:13.682Z,23.07
2019-01-19T12:21:45.979Z,26.20
2019-01-19T12:24:18.192Z,23.80
2019-01-19T12:26:50.639Z,24.07
2019-01-19T12:29:23.509Z,19.87
2019-01-19T12:31:55.711Z,23.90
2019-01-19T12:34:27.916Z,19.77
2019-01-19T12:37:00.275Z,23.07
2019-01-19T12:39:33.315Z,21.97
2019-01-19T12:42:05.842Z,23.00
2019-01-19T12:44:38.214Z,21.67
2019-01-19T12:47:10.441Z,20.37
2019-01-19T12:49:43.152Z,24.23
2019-01-19T12:52:15.253Z,22.97
2019-01-19T12:54:47.555Z,22.27
2019-01-19T12:57:20.103Z,23.47
2019-01-19T12:59:52.851Z,18.77
2019-01-19T13:02:25.120Z,20.87
2019-01-19T13:05:06.808Z,18.63
2019-01-19T13:07:39.198Z,20.67
2019-01-19T13:10:16.105Z,20.97
2019-01-19T13:12:51.923Z,23.03
2019-01-19T13:16:17.760Z,21.13
2019-01-19T13:19:19.982Z,18.13
2019-01-19T13:22:32.876Z,18.07
2019-01-19T13:26:05.378Z,17.10
2019-01-19T13:29:21.353Z,19.40
2019-01-19T13:32:26.909Z,18.80
2019-01-19T13:35:34.350Z,17.40
2019-01-19T13:39:04.042Z,17.90
2019-01-19T13:41:54.773Z,23.00
2019-01-19T13:45:17.025Z,18.67
2019-01-19T13:48:32.500Z,21.13
2019-01-19T13:51:31.607Z,20.63
2019-01-19T13:54:23.113Z,16.37
2019-01-19T13:57:16.690Z,20.77
2019-01-19T14:00:27.056Z,17.33
2019-01-19T14:03:54.316Z,20.43
2019-01-19T14:06:33.737Z,17.27
2019-01-19T14:09:29.150Z,20.53
2019-01-19T14:13:02.985Z,17.70
2019-01-19T14:16:27.644Z,20.80
2019-01-19T14:19:30.550Z,19.00
2019-01-19T14:22:48.062Z,19.50
2019-01-19T14:26:15.486Z,19.43
2019-01-19T14:29:39.140Z,21.53
2019-01-19T14:32:38.804Z,23.10
2019-01-19T14:36:14.614Z,21.83
2019-01-19T14:39:06.655Z,18.50
2019-01-19T14:42:32.910Z,21.83
2019-01-19T14:45:31.349Z,21.43
2019-01-19T14:48:45.488Z,25.97
2019-01-19T14:51:54.685Z,25.27
2019-01-19T14:55:16.857Z,25.30
2019-01-19T14:58:22.501Z,30.03
2019-01-19T15:01:34.015Z,23.07
2019-01-19T15:04:25.740Z,26.87
2019-01-19T15:07:28.072Z,29.53
2019-01-19T15:10:38.755Z,22.97
2019-01-19T15:13:55.209Z,21.17
2019-01-19T15:17:09.255Z,25.30
2019-01-19T15:20:31.281Z,28.93
2019-01-19T15:23:54.389Z,28.63
2019-01-19T15:27:13.507Z,23.43
2019-01-19T15:30:20.706Z,27.50
2019-01-19T15:33:06.906Z,26.73
2019-01-19T15:36:16.832Z,27.07
2019-01-19T15:39:36.999Z,27.63
2019-01-19T15:42:37.281Z,25.63
2019-01-19T15:45:51.425Z,28.97
2019-01-19T15:49:06.702Z,26.77
2019-01-19T15:52:14.556Z,27.53
2019-01-19T15:55:23.759Z,28.10
2019-01-19T15:58:37.281Z,27.77
2019-01-19T16:01:54.211Z,25.93
2019-01-19T16:05:03.067Z,21.43
2019-01-19T16:08:06.924Z,24.17
2019-01-19T16:11:39.837Z,26.43
2019-01-19T16:15:06.341Z,26.93
2019-01-19T16:18:03.642Z,25.93
2019-01-19T16:21:02.416Z,29.03
2019-01-19T16:24:04.682Z,25.17
2019-01-19T16:26:58.241Z,27.90
2019-01-19T16:30:08.748Z,28.13
2019-01-19T16:33:18.777Z,26.53
2019-01-19T16:37:13.973Z,20.67
2019-01-19T16:40:53.064Z,25.33
2019-01-19T16:43:28.932Z,23.43
2019-01-19T16:46:47.138Z,28.50
2019-01-19T16:49:45.200Z,24.77
2019-01-19T16:52:52.113Z,27.40
2019-01-19T16:56:16.635Z,28.87
2019-01-19T16:59:26.527Z,25.80
2019-01-19T17:02:46.931Z,28.30
2019-01-19T17:05:36.204Z,28.77
2019-01-19T17:08:42.244Z,24.47
2019-01-19T17:11:57.673Z,23.70
2019-01-19T17:15:22.622Z,23.50
2019-01-19T17:18:38.871Z,23.83
2019-01-19T17:22:18.271Z,25.03
2019-01-19T17:25:20.564Z,24.60
2019-01-19T17:28:25.106Z,24.23
2019-01-19T17:31:42.399Z,22.93
2019-01-19T17:35:03.938Z,23.23
2019-01-19T17:37:53.065Z,23.47
2019-01-19T17:41:24.867Z,23.63
2019-01-19T17:44:14.025Z,22.87
2019-01-19T17:47:43.277Z,28.77
2019-01-19T17:51:00.961Z,24.17
2019-01-19T17:54:12.750Z,20.03
2019-01-19T17:57:03.671Z,30.00
2019-01-19T18:00:12.628Z,23.17
2019-01-19T18:03:09.069Z,21.33
2019-01-19T18:06:09.844Z,28.87
2019-01-19T18:09:04.962Z,22.40
2019-01-19T18:12:20.416Z,26.80
2019-01-19T18:15:26.236Z,27.80
2019-01-19T18:18:18.503Z,29.93
2019-01-19T18:21:37.898Z,28.17
2019-01-19T18:24:56.890Z,25.67
2019-01-19T18:28:10.448Z,25.70
2019-01-19T18:31:36.125Z,33.23
2019-01-19T18:34:44.658Z,33.43
2019-01-19T18:37:46.611Z,32.90
2019-01-19T18:40:50.070Z,33.40
2019-01-19T18:44:05.038Z,25.17
2019-01-19T18:46:50.391Z,28.43
2019-01-19T18:50:03.149Z,28.00
2019-01-19T18:53:03.666Z,27.07
2019-01-19T18:56:25.168Z,28.63
2019-01-19T18:59:02.780Z,27.73
2019-01-19T19:01:55.659Z,25.13
2019-01-19T19:05:05.382Z,29.53
2019-01-19T19:08:55.390Z,27.37
2019-01-19T19:12:04.722Z,27.43
2019-01-19T19:15:25.385Z,25.23
2019-01-19T19:18:40.899Z,28.10
2019-01-19T19:21:35.660Z,31.67
2019-01-19T19:24:29.655Z,29.00
2019-01-19T19:27:45.566Z,27.23
2019-01-19T19:31:03.448Z,29.10
2019-01-19T19:34:30.767Z,24.70
2019-01-19T19:37:25.480Z,28.87
2019-01-19T19:40:54.864Z,26.90
2019-01-19T19:44:00.612Z,31.43
2019-01-19T19:47:12.008Z,30.07
2019-01-19T19:50:02.428Z,27.00
2019-01-19T19:52:36.006Z,28.57
2019-01-19T19:55:07.636Z,26.10
2019-01-19T19:57:41.081Z,27.37
2019-01-19T20:00:17.160Z,29.83
2019-01-19T20:02:50.521Z,26.13
2019-01-19T20:05:23.597Z,30.83
2019-01-19T20:07:56.380Z,30.43
2019-01-19T20:10:31.885Z,30.90
2019-01-19T20:13:05.077Z,24.83
2019-01-19T20:15:38.034Z,29.53
2019-01-19T20:18:11.405Z,24.73
2019-01-19T20:20:44.168Z,28.47
2019-01-19T20:23:16.920Z,23.57
2019-01-19T20:25:49.621Z,25.13
2019-01-19T20:28:45.664Z,22.53
2019-01-19T20:31:18.301Z,23.10
2019-01-19T20:34:07.543Z,24.10
2019-01-19T20:36:40.157Z,23.17
2019-01-19T20:39:12.469Z,24.27
2019-01-19T20:41:45.235Z,23.90
2019-01-19T20:44:18.129Z,23.03
2019-01-19T20:46:51.028Z,25.87
2019-01-19T20:49:25.524Z,26.23
2019-01-19T20:51:58.377Z,21.90
2019-01-19T20:54:30.732Z,20.17
2019-01-19T20:57:03.286Z,27.27
2019-01-19T20:59:36.085Z,23.77
2019-01-19T21:02:10.738Z,26.90
2019-01-19T21:04:44.708Z,20.40
2019-01-19T21:07:17.633Z,24.93
2019-01-19T21:09:50.786Z,22.07
2019-01-19T21:12:23.590Z,24.60
2019-01-19T21:14:56.176Z,23.57
2019-01-19T21:17:28.998Z,21.73
2019-01-19T21:20:01.436Z,21.97
2019-01-19T21:22:33.922Z,23.77
2019-01-19T21:25:07.647Z,20.73
2019-01-19T21:27:40.470Z,21.63
2019-01-19T21:30:14.208Z,27.17
2019-01-19T21:32:46.802Z,21.73
2019-01-19T21:35:19.408Z,25.17
2019-01-19T21:37:52.031Z,30.33
2019-01-19T21:40:24.862Z,22.27
2019-01-19T21:42:58.250Z,23.47
2019-01-19T21:45:30.922Z,20.33
2019-01-19T21:48:03.479Z,27.40
2019-01-19T21:50:36.650Z,26.13
2019-01-19T21:53:09.536Z,24.77
2019-01-19T21:55:42.235Z,25.83
2019-01-19T21:58:14.564Z,25.33
2019-01-19T22:00:47.010Z,20.00
2019-01-19T22:03:19.333Z,24.97
2019-01-19T22:05:52.001Z,24.47
2019-01-19T22:08:24.584Z,23.20
2019-01-19T22:10:57.457Z,26.93
2019-01-19T22:13:30.224Z,20.63
2019-01-19T22:16:02.698Z,22.63
2019-01-19T22:18:35.787Z,22.40
2019-01-19T22:21:08.131Z,25.37
2019-01-19T22:23:40.735Z,21.03
2019-01-19T22:26:15.062Z,22.67
2019-01-19T22:28:47.558Z,18.97
2019-01-19T22:31:20.055Z,23.53
2019-01-19T22:33:53.797Z,19.03
2019-01-19T22:36:26.579Z,22.67
2019-01-19T22:38:59.174Z,21.67
2019-01-19T22:41:31.662Z,23.53
2019-01-19T22:44:04.679Z,21.77
2019-01-19T22:46:37.434Z,23.90
2019-01-19T22:49:10.033Z,25.30
2019-01-19T22:51:42.376Z,26.23
2019-01-19T22:54:14.669Z,22.17
2019-01-19T22:56:47.312Z,20.77
2019-01-19T22:59:19.715Z,24.33
2019-01-19T23:01:55.617Z,23.27
2019-01-19T23:04:27.961Z,23.17
2019-01-19T23:07:00.426Z,27.80
2019-01-19T23:09:33.048Z,23.03
2019-01-19T23:12:05.488Z,20.20
2019-01-19T23:14:38.310Z,24.73
2019-01-19T23:17:10.811Z,23.10
2019-01-19T23:19:43.108Z,25.73
2019-01-19T23:22:15.939Z,25.13
2019-01-19T23:24:48.459Z,30.03
2019-01-19T23:27:20.812Z,26.73
2019-01-19T23:29:53.491Z,27.60
2019-01-19T23:32:26.488Z,28.77
2019-01-19T23:34:58.742Z,26.17
2019-01-19T23:37:31.186Z,32.27
2019-01-19T23:40:04.128Z,27.40
2019-01-19T23:42:36.581Z,28.97
2019-01-19T23:45:09.091Z,28.93
2019-01-19T23:47:42.200Z,26.63
2019-01-19T23:50:14.577Z,24.53
2019-01-19T23:52:47.190Z,26.40
2019-01-19T23:55:19.670Z,27.53
2019-01-19T23:57:52.122Z,25.03
